sensor_id;sensor_type;location;lat;lon;timestamp;pressure;altitude;pressure_sealevel;temperature;humidity
60049;BME280;66154;45.544;6.756;2023-12-29T00:03:09;87590.47;;;5.25;70.44
60049;BME280;66154;45.544;6.756;2023-12-29T00:08:10;87593.47;;;5.20;70.94
60049;BME280;66154;45.544;6.756;2023-12-29T00:13:11;87590.50;;;5.15;70.51
60049;BME280;66154;45.544;6.756;2023-12-29T00:18:11;87582.66;;;5.08;70.75
60049;BME280;66154;45.544;6.756;2023-12-29T00:23:12;87585.66;;;4.99;70.67
60049;BME280;66154;45.544;6.756;2023-12-29T00:28:13;87573.75;;;4.91;70.16
60049;BME280;66154;45.544;6.756;2023-12-29T00:33:14;87561.47;;;4.85;70.25
60049;BME280;66154;45.544;6.756;2023-12-29T00:38:14;87552.53;;;4.79;70.59
60049;BME280;66154;45.544;6.756;2023-12-29T00:43:15;87560.72;;;4.74;72.07
60049;BME280;66154;45.544;6.756;2023-12-29T00:48:15;87551.41;;;4.69;70.35
60049;BME280;66154;45.544;6.756;2023-12-29T00:53:16;87554.00;;;4.66;71.89
60049;BME280;66154;45.544;6.756;2023-12-29T00:58:16;87546.94;;;4.66;71.86
60049;BME280;66154;45.544;6.756;2023-12-29T01:03:17;87536.16;;;4.64;71.34
60049;BME280;66154;45.544;6.756;2023-12-29T01:08:17;87522.38;;;4.63;71.57
60049;BME280;66154;45.544;6.756;2023-12-29T01:13:18;87510.13;;;4.64;72.21
60049;BME280;66154;45.544;6.756;2023-12-29T01:18:18;87514.94;;;4.66;71.27
60049;BME280;66154;45.544;6.756;2023-12-29T01:23:19;87510.13;;;4.60;70.91
60049;BME280;66154;45.544;6.756;2023-12-29T01:28:19;87491.53;;;4.58;72.08
60049;BME280;66154;45.544;6.756;2023-12-29T01:33:20;87474.78;;;4.56;72.13
60049;BME280;66154;45.544;6.756;2023-12-29T01:38:21;87466.59;;;4.54;72.22
60049;BME280;66154;45.544;6.756;2023-12-29T01:43:22;87456.56;;;4.52;71.01
60049;BME280;66154;45.544;6.756;2023-12-29T01:48:23;87464.00;;;4.50;72.83
60049;BME280;66154;45.544;6.756;2023-12-29T01:53:24;87468.09;;;4.48;72.87
60049;BME280;66154;45.544;6.756;2023-12-29T01:58:25;87461.78;;;4.49;72.54
60049;BME280;66154;45.544;6.756;2023-12-29T02:03:26;87468.84;;;4.48;72.29
60049;BME280;66154;45.544;6.756;2023-12-29T02:08:27;87461.03;;;4.48;72.49
60049;BME280;66154;45.544;6.756;2023-12-29T02:13:27;87471.06;;;4.50;72.81
60049;BME280;66154;45.544;6.756;2023-12-29T02:18:30;87469.59;;;4.49;72.44
60049;BME280;66154;45.544;6.756;2023-12-29T02:23:32;87469.22;;;4.47;72.74
60049;BME280;66154;45.544;6.756;2023-12-29T02:28:34;87450.63;;;4.48;72.47
60049;BME280;66154;45.544;6.756;2023-12-29T02:33:40;87442.06;;;4.48;71.74
60049;BME280;66154;45.544;6.756;2023-12-29T02:38:41;87425.31;;;4.52;71.85
60049;BME280;66154;45.544;6.756;2023-12-29T02:43:42;87420.50;;;4.54;71.77
60049;BME280;66154;45.544;6.756;2023-12-29T02:48:42;87425.31;;;4.56;71.09
60049;BME280;66154;45.544;6.756;2023-12-29T02:53:43;87420.84;;;4.60;72.58
60049;BME280;66154;45.544;6.756;2023-12-29T02:58:43;87426.06;;;4.60;72.47
60049;BME280;66154;45.544;6.756;2023-12-29T03:03:45;87414.91;;;4.59;74.54
60049;BME280;66154;45.544;6.756;2023-12-29T03:08:46;87401.16;;;4.63;72.58
60049;BME280;66154;45.544;6.756;2023-12-29T03:13:47;87395.53;;;4.68;72.77
60049;BME280;66154;45.544;6.756;2023-12-29T03:18:47;87386.97;;;4.71;72.91
60049;BME280;66154;45.544;6.756;2023-12-29T03:23:48;87376.19;;;4.72;72.79
60049;BME280;66154;45.544;6.756;2023-12-29T03:28:50;87380.28;;;4.73;72.66
60049;BME280;66154;45.544;6.756;2023-12-29T03:33:50;87363.91;;;4.73;72.75
60049;BME280;66154;45.544;6.756;2023-12-29T03:38:51;87363.16;;;4.76;72.62
60049;BME280;66154;45.544;6.756;2023-12-29T03:43:51;87364.63;;;4.77;72.49
60049;BME280;66154;45.544;6.756;2023-12-29T03:48:52;87363.91;;;4.76;72.55
60049;BME280;66154;45.544;6.756;2023-12-29T03:53:52;87358.72;;;4.76;72.12
60049;BME280;66154;45.544;6.756;2023-12-29T03:58:53;87355.34;;;4.76;72.91
60049;BME280;66154;45.544;6.756;2023-12-29T04:03:53;87347.91;;;4.71;72.56
60049;BME280;66154;45.544;6.756;2023-12-29T04:08:54;87348.69;;;4.68;72.70
60049;BME280;66154;45.544;6.756;2023-12-29T04:13:54;87343.47;;;4.64;72.70
60049;BME280;66154;45.544;6.756;2023-12-29T04:18:55;87328.97;;;4.67;72.63
60049;BME280;66154;45.544;6.756;2023-12-29T04:23:56;87327.09;;;4.67;71.60
60049;BME280;66154;45.544;6.756;2023-12-29T04:28:56;87314.81;;;4.68;72.45
60049;BME280;66154;45.544;6.756;2023-12-29T04:33:57;87318.53;;;4.70;72.56
60049;BME280;66154;45.544;6.756;2023-12-29T04:38:58;87327.44;;;4.73;71.46
60049;BME280;66154;45.544;6.756;2023-12-29T04:43:58;87323.00;;;4.73;72.58
60049;BME280;66154;45.544;6.756;2023-12-29T04:48:59;87328.56;;;4.75;72.33
60049;BME280;66154;45.544;6.756;2023-12-29T04:53:59;87327.09;;;4.74;72.41
60049;BME280;66154;45.544;6.756;2023-12-29T04:59:00;87330.06;;;4.76;72.49
60049;BME280;66154;45.544;6.756;2023-12-29T05:04:00;87351.63;;;4.77;72.54
60049;BME280;66154;45.544;6.756;2023-12-29T05:09:01;87352.38;;;4.77;72.21
60049;BME280;66154;45.544;6.756;2023-12-29T05:14:01;87354.59;;;4.75;72.61
60049;BME280;66154;45.544;6.756;2023-12-29T05:19:02;87349.78;;;4.74;72.51
60049;BME280;66154;45.544;6.756;2023-12-29T05:24:03;87361.31;;;4.76;72.69
60049;BME280;66154;45.544;6.756;2023-12-29T05:29:04;87352.00;;;4.75;72.72
60049;BME280;66154;45.544;6.756;2023-12-29T05:34:05;87349.41;;;4.75;72.80
60049;BME280;66154;45.544;6.756;2023-12-29T05:39:06;87346.41;;;4.77;72.80
60049;BME280;66154;45.544;6.756;2023-12-29T05:44:06;87347.16;;;4.77;72.81
60049;BME280;66154;45.544;6.756;2023-12-29T05:49:07;87353.13;;;4.78;74.71
60049;BME280;66154;45.544;6.756;2023-12-29T05:54:07;87357.19;;;4.79;72.11
60049;BME280;66154;45.544;6.756;2023-12-29T05:59:08;87350.91;;;4.76;73.32
60049;BME280;66154;45.544;6.756;2023-12-29T06:04:08;87373.59;;;4.72;71.79
60049;BME280;66154;45.544;6.756;2023-12-29T06:09:09;87377.31;;;4.68;72.62
60049;BME280;66154;45.544;6.756;2023-12-29T06:14:10;87375.09;;;4.66;72.69
60049;BME280;66154;45.544;6.756;2023-12-29T06:19:11;87363.56;;;4.63;72.57
60049;BME280;66154;45.544;6.756;2023-12-29T06:24:12;87370.25;;;4.61;72.30
60049;BME280;66154;45.544;6.756;2023-12-29T06:29:12;87368.41;;;4.58;72.44
60049;BME280;66154;45.544;6.756;2023-12-29T06:34:13;87371.03;;;4.54;72.49
60049;BME280;66154;45.544;6.756;2023-12-29T06:39:13;87362.84;;;4.52;72.49
60049;BME280;66154;45.544;6.756;2023-12-29T06:44:14;87362.09;;;4.52;72.54
60049;BME280;66154;45.544;6.756;2023-12-29T06:49:14;87362.09;;;4.52;72.80
60049;BME280;66154;45.544;6.756;2023-12-29T06:54:15;87365.09;;;4.50;72.79
60049;BME280;66154;45.544;6.756;2023-12-29T06:59:16;87365.44;;;4.52;72.62
60049;BME280;66154;45.544;6.756;2023-12-29T07:04:16;87378.47;;;4.52;72.76
60049;BME280;66154;45.544;6.756;2023-12-29T07:09:17;87379.22;;;4.53;72.27
60049;BME280;66154;45.544;6.756;2023-12-29T07:14:17;87376.63;;;4.53;72.63
60049;BME280;66154;45.544;6.756;2023-12-29T07:19:18;87387.03;;;4.53;72.78
60049;BME280;66154;45.544;6.756;2023-12-29T07:24:18;87386.66;;;4.54;72.79
60049;BME280;66154;45.544;6.756;2023-12-29T07:29:19;87375.84;;;4.56;72.36
60049;BME280;66154;45.544;6.756;2023-12-29T07:34:20;87379.22;;;4.53;72.70
60049;BME280;66154;45.544;6.756;2023-12-29T07:39:21;87388.88;;;4.56;72.49
60049;BME280;66154;45.544;6.756;2023-12-29T07:44:21;87403.03;;;4.55;76.15
60049;BME280;66154;45.544;6.756;2023-12-29T07:49:22;87405.97;;;4.53;73.52
60049;BME280;66154;45.544;6.756;2023-12-29T07:54:22;87411.19;;;4.50;73.13
60049;BME280;66154;45.544;6.756;2023-12-29T07:59:23;87416.03;;;4.55;71.71
60049;BME280;66154;45.544;6.756;2023-12-29T08:04:23;87424.56;;;4.55;72.58
60049;BME280;66154;45.544;6.756;2023-12-29T08:09:25;87429.03;;;4.51;71.92
60049;BME280;66154;45.544;6.756;2023-12-29T08:14:26;87431.28;;;4.46;73.02
60049;BME280;66154;45.544;6.756;2023-12-29T08:19:28;87437.59;;;4.45;73.06
60049;BME280;66154;45.544;6.756;2023-12-29T08:24:28;87447.25;;;4.51;73.63
60049;BME280;66154;45.544;6.756;2023-12-29T08:29:29;87455.44;;;4.57;73.37
60049;BME280;66154;45.544;6.756;2023-12-29T08:34:29;87460.28;;;4.58;73.53
60049;BME280;66154;45.544;6.756;2023-12-29T08:39:30;87467.72;;;4.60;73.57
60049;BME280;66154;45.544;6.756;2023-12-29T08:44:30;87472.53;;;4.61;73.76
60049;BME280;66154;45.544;6.756;2023-12-29T08:49:31;87468.09;;;4.66;73.54
60049;BME280;66154;45.544;6.756;2023-12-29T08:54:31;87470.69;;;4.69;72.68
60049;BME280;66154;45.544;6.756;2023-12-29T08:59:32;87475.16;;;4.72;73.16
60049;BME280;66154;45.544;6.756;2023-12-29T09:04:33;87476.28;;;4.78;73.20
60049;BME280;66154;45.544;6.756;2023-12-29T09:09:33;87477.38;;;4.77;73.38
60049;BME280;66154;45.544;6.756;2023-12-29T09:14:34;87487.03;;;4.77;73.00
60049;BME280;66154;45.544;6.756;2023-12-29T09:19:34;87479.97;;;4.74;73.66
60049;BME280;66154;45.544;6.756;2023-12-29T09:24:35;87489.28;;;4.75;73.94
60049;BME280;66154;45.544;6.756;2023-12-29T09:29:37;87485.19;;;4.77;74.32
60049;BME280;66154;45.544;6.756;2023-12-29T09:34:37;87501.19;;;4.83;73.50
60049;BME280;66154;45.544;6.756;2023-12-29T09:39:38;87500.78;;;4.84;72.60
60049;BME280;66154;45.544;6.756;2023-12-29T09:44:38;87516.81;;;4.79;73.42
60049;BME280;66154;45.544;6.756;2023-12-29T09:49:40;87507.88;;;4.80;72.74
60049;BME280;66154;45.544;6.756;2023-12-29T09:54:42;87512.34;;;4.76;73.08
60049;BME280;66154;45.544;6.756;2023-12-29T09:59:43;87511.22;;;4.74;73.34
60049;BME280;66154;45.544;6.756;2023-12-29T10:04:44;87514.22;;;4.79;73.35
60049;BME280;66154;45.544;6.756;2023-12-29T10:09:45;87509.72;;;4.87;72.51
60049;BME280;66154;45.544;6.756;2023-12-29T10:14:57;87521.28;;;4.93;72.78
60049;BME280;66154;45.544;6.756;2023-12-29T10:25:25;87514.94;;;5.04;72.62
60049;BME280;66154;45.544;6.756;2023-12-29T10:30:26;87507.84;;;5.08;72.47
60049;BME280;66154;45.544;6.756;2023-12-29T10:35:27;87514.91;;;5.11;72.48
60049;BME280;66154;45.544;6.756;2023-12-29T10:40:28;87504.50;;;5.18;72.63
60049;BME280;66154;45.544;6.756;2023-12-29T10:45:28;87497.03;;;5.27;72.51
60049;BME280;66154;45.544;6.756;2023-12-29T10:50:29;87484.31;;;5.36;72.59
60049;BME280;66154;45.544;6.756;2023-12-29T10:55:31;87472.03;;;5.47;72.69
60049;BME280;66154;45.544;6.756;2023-12-29T11:00:32;87460.81;;;5.50;72.44
60049;BME280;66154;45.544;6.756;2023-12-29T11:05:35;87459.31;;;5.57;72.52
60049;BME280;66154;45.544;6.756;2023-12-29T11:10:36;87457.44;;;5.61;72.58
60049;BME280;66154;45.544;6.756;2023-12-29T11:15:39;87438.41;;;5.67;72.66
60049;BME280;66154;45.544;6.756;2023-12-29T11:20:43;87421.22;;;5.73;72.13
60049;BME280;66154;45.544;6.756;2023-12-29T11:25:44;87419.38;;;5.74;72.59
60049;BME280;66154;45.544;6.756;2023-12-29T11:30:46;87410.47;;;5.68;71.92
60049;BME280;66154;45.544;6.756;2023-12-29T11:41:22;87410.47;;;5.64;71.69
60049;BME280;66154;45.544;6.756;2023-12-29T11:46:36;87411.19;;;5.72;71.95
60049;BME280;66154;45.544;6.756;2023-12-29T11:51:46;87398.13;;;5.75;71.77
60049;BME280;66154;45.544;6.756;2023-12-29T11:56:49;87396.22;;;5.83;71.60
60049;BME280;66154;45.544;6.756;2023-12-29T12:01:51;87394.69;;;5.96;71.94
60049;BME280;66154;45.544;6.756;2023-12-29T12:06:52;87383.78;;;6.08;71.77
60049;BME280;66154;45.544;6.756;2023-12-29T12:11:52;87375.88;;;6.18;72.13
60049;BME280;66154;45.544;6.756;2023-12-29T12:16:53;87365.00;;;6.27;71.71
60049;BME280;66154;45.544;6.756;2023-12-29T12:21:54;87365.66;;;6.34;71.83
60049;BME280;66154;45.544;6.756;2023-12-29T12:26:56;87356.69;;;6.39;71.78
60049;BME280;66154;45.544;6.756;2023-12-29T12:31:57;87343.97;;;6.44;71.71
60049;BME280;66154;45.544;6.756;2023-12-29T12:36:57;87340.94;;;6.50;71.48
60049;BME280;66154;45.544;6.756;2023-12-29T12:41:59;87345.00;;;6.54;71.90
60049;BME280;66154;45.544;6.756;2023-12-29T12:47:06;87329.63;;;6.60;71.46
60049;BME280;66154;45.544;6.756;2023-12-29T12:52:08;87316.22;;;6.61;71.63
60049;BME280;66154;45.544;6.756;2023-12-29T12:57:09;87311.34;;;6.63;71.73
60049;BME280;66154;45.544;6.756;2023-12-29T13:02:10;87307.19;;;6.66;71.47
60049;BME280;66154;45.544;6.756;2023-12-29T13:07:14;87304.56;;;6.66;71.22
60049;BME280;66154;45.544;6.756;2023-12-29T13:12:16;87313.81;;;6.74;71.76
60049;BME280;66154;45.544;6.756;2023-12-29T13:17:16;87313.91;;;7.00;71.94
60049;BME280;66154;45.544;6.756;2023-12-29T13:22:17;87308.81;;;7.20;71.83
60049;BME280;66154;45.544;6.756;2023-12-29T13:27:19;87304.44;;;7.13;71.71
60049;BME280;66154;45.544;6.756;2023-12-29T13:32:22;87313.19;;;7.00;71.43
60049;BME280;66154;45.544;6.756;2023-12-29T13:37:25;87318.59;;;6.82;71.06
60049;BME280;66154;45.544;6.756;2023-12-29T13:42:32;87320.69;;;6.61;71.38
60049;BME280;66154;45.544;6.756;2023-12-29T13:47:36;87321.13;;;6.52;71.19
60049;BME280;66154;45.544;6.756;2023-12-29T13:52:37;87322.63;;;6.53;71.62
60049;BME280;66154;45.544;6.756;2023-12-29T13:57:38;87322.31;;;6.48;71.82
60049;BME280;66154;45.544;6.756;2023-12-29T14:02:39;87321.59;;;6.43;71.59
60049;BME280;66154;45.544;6.756;2023-12-29T14:07:46;87318.66;;;6.38;71.47
60049;BME280;66154;45.544;6.756;2023-12-29T14:12:47;87311.66;;;6.28;71.38
60049;BME280;66154;45.544;6.756;2023-12-29T14:17:48;87314.31;;;6.21;71.72
60049;BME280;66154;45.544;6.756;2023-12-29T14:22:48;87320.72;;;6.16;71.81
60049;BME280;66154;45.544;6.756;2023-12-29T14:27:52;87318.84;;;6.13;72.16
60049;BME280;66154;45.544;6.756;2023-12-29T14:32:53;87321.84;;;6.12;72.23
60049;BME280;66154;45.544;6.756;2023-12-29T14:37:54;87321.84;;;6.12;72.24
60049;BME280;66154;45.544;6.756;2023-12-29T14:42:55;87300.97;;;6.12;72.42
60049;BME280;66154;45.544;6.756;2023-12-29T14:47:58;87286.81;;;6.13;72.15
60049;BME280;66154;45.544;6.756;2023-12-29T14:52:58;87277.47;;;6.15;71.82
60049;BME280;66154;45.544;6.756;2023-12-29T14:57:59;87264.41;;;6.19;72.03
60049;BME280;66154;45.544;6.756;2023-12-29T15:03:00;87268.47;;;6.20;72.01
60049;BME280;66154;45.544;6.756;2023-12-29T15:08:00;87269.63;;;6.15;72.02
60049;BME280;66154;45.544;6.756;2023-12-29T15:13:01;87274.53;;;6.10;72.30
60049;BME280;66154;45.544;6.756;2023-12-29T15:18:02;87269.03;;;6.01;71.84
60049;BME280;66154;45.544;6.756;2023-12-29T15:23:03;87283.94;;;6.00;72.23
60049;BME280;66154;45.544;6.756;2023-12-29T15:28:03;87285.06;;;5.99;72.56
60049;BME280;66154;45.544;6.756;2023-12-29T15:33:04;87276.50;;;5.99;72.64
60049;BME280;66154;45.544;6.756;2023-12-29T15:38:04;87280.56;;;6.00;72.38
60049;BME280;66154;45.544;6.756;2023-12-29T15:43:05;87280.22;;;5.98;72.58
60049;BME280;66154;45.544;6.756;2023-12-29T15:48:08;87280.59;;;5.96;72.59
60049;BME280;66154;45.544;6.756;2023-12-29T15:53:09;87279.16;;;5.92;72.58
60049;BME280;66154;45.544;6.756;2023-12-29T15:58:10;87262.03;;;5.91;72.61
60049;BME280;66154;45.544;6.756;2023-12-29T16:03:10;87253.47;;;5.87;72.32
60049;BME280;66154;45.544;6.756;2023-12-29T16:08:11;87251.66;;;5.84;72.38
60049;BME280;66154;45.544;6.756;2023-12-29T16:13:15;87247.19;;;5.77;72.54
60049;BME280;66154;45.544;6.756;2023-12-29T16:18:15;87252.44;;;5.74;72.16
60049;BME280;66154;45.544;6.756;2023-12-29T16:23:16;87246.88;;;5.72;72.45
60049;BME280;66154;45.544;6.756;2023-12-29T16:28:16;87248.75;;;5.68;72.80
60049;BME280;66154;45.544;6.756;2023-12-29T16:33:17;87244.72;;;5.60;71.90
60049;BME280;66154;45.544;6.756;2023-12-29T16:38:17;87245.88;;;5.51;72.40
60049;BME280;66154;45.544;6.756;2023-12-29T16:43:18;87248.53;;;5.48;72.39
60049;BME280;66154;45.544;6.756;2023-12-29T16:48:18;87263.44;;;5.47;72.15
60049;BME280;66154;45.544;6.756;2023-12-29T16:53:19;87263.09;;;5.45;72.20
60049;BME280;66154;45.544;6.756;2023-12-29T16:58:21;87261.22;;;5.42;72.09
60049;BME280;66154;45.544;6.756;2023-12-29T17:03:21;87262.38;;;5.41;72.45
60049;BME280;66154;45.544;6.756;2023-12-29T17:08:22;87250.44;;;5.40;72.41
60049;BME280;66154;45.544;6.756;2023-12-29T17:13:23;87243.00;;;5.39;72.37
60049;BME280;66154;45.544;6.756;2023-12-29T17:18:24;87245.25;;;5.37;72.53
60049;BME280;66154;45.544;6.756;2023-12-29T17:23:25;87250.50;;;5.33;72.11
60049;BME280;66154;45.544;6.756;2023-12-29T17:28:25;87254.59;;;5.31;72.28
60049;BME280;66154;45.544;6.756;2023-12-29T17:33:26;87253.13;;;5.30;72.13
60049;BME280;66154;45.544;6.756;2023-12-29T17:38:27;87251.63;;;5.29;72.07
60049;BME280;66154;45.544;6.756;2023-12-29T17:43:27;87255.78;;;5.26;71.80
60049;BME280;66154;45.544;6.756;2023-12-29T17:48:28;87253.91;;;5.23;71.71
60049;BME280;66154;45.544;6.756;2023-12-29T17:53:29;87249.09;;;5.22;71.65
60049;BME280;66154;45.544;6.756;2023-12-29T17:58:29;87251.34;;;5.16;71.49
60049;BME280;66154;45.544;6.756;2023-12-29T18:03:30;87267.38;;;5.15;71.36
60049;BME280;66154;45.544;6.756;2023-12-29T18:08:31;87266.25;;;5.16;71.53
60049;BME280;66154;45.544;6.756;2023-12-29T18:13:32;87271.06;;;5.17;71.71
60049;BME280;66154;45.544;6.756;2023-12-29T18:18:32;87266.59;;;5.18;71.55
60049;BME280;66154;45.544;6.756;2023-12-29T18:23:33;87273.31;;;5.15;71.79
60049;BME280;66154;45.544;6.756;2023-12-29T18:28:35;87273.72;;;5.10;71.90
60049;BME280;66154;45.544;6.756;2023-12-29T18:33:39;87269.66;;;5.02;71.73
60049;BME280;66154;45.544;6.756;2023-12-29T18:38:40;87272.66;;;4.94;71.93
60049;BME280;66154;45.544;6.756;2023-12-29T18:43:40;87284.63;;;4.88;72.22
60049;BME280;66154;45.544;6.756;2023-12-29T18:48:41;87290.97;;;4.83;71.90
60049;BME280;66154;45.544;6.756;2023-12-29T18:53:42;87291.34;;;4.82;72.26
60049;BME280;66154;45.544;6.756;2023-12-29T18:58:44;87292.44;;;4.84;72.12
60049;BME280;66154;45.544;6.756;2023-12-29T19:03:45;87282.75;;;4.88;72.26
60049;BME280;66154;45.544;6.756;2023-12-29T19:08:45;87283.09;;;4.90;72.05
60049;BME280;66154;45.544;6.756;2023-12-29T19:13:46;87283.09;;;4.90;72.27
60049;BME280;66154;45.544;6.756;2023-12-29T19:18:46;87276.44;;;4.89;72.19
60049;BME280;66154;45.544;6.756;2023-12-29T19:23:47;87277.53;;;4.88;72.55
60049;BME280;66154;45.544;6.756;2023-12-29T19:28:52;87268.63;;;4.86;72.36
60049;BME280;66154;45.544;6.756;2023-12-29T19:33:52;87266.03;;;4.82;72.30
60049;BME280;66154;45.544;6.756;2023-12-29T19:38:53;87276.06;;;4.80;72.16
60049;BME280;66154;45.544;6.756;2023-12-29T19:43:54;87273.47;;;4.80;72.95
60049;BME280;66154;45.544;6.756;2023-12-29T19:48:54;87274.97;;;4.81;72.20
60049;BME280;66154;45.544;6.756;2023-12-29T19:53:55;87276.44;;;4.82;72.46
60049;BME280;66154;45.544;6.756;2023-12-29T19:58:56;87279.78;;;4.83;72.72
60049;BME280;66154;45.544;6.756;2023-12-29T20:03:56;87283.91;;;4.84;72.67
60049;BME280;66154;45.544;6.756;2023-12-29T20:08:57;87279.41;;;4.84;72.61
60049;BME280;66154;45.544;6.756;2023-12-29T20:13:57;87275.69;;;4.85;72.74
60049;BME280;66154;45.544;6.756;2023-12-29T20:18:58;87273.47;;;4.84;72.53
60049;BME280;66154;45.544;6.756;2023-12-29T20:24:01;87283.16;;;4.83;72.73
60049;BME280;66154;45.544;6.756;2023-12-29T20:29:01;87279.41;;;4.84;73.05
60049;BME280;66154;45.544;6.756;2023-12-29T20:34:02;87284.97;;;4.86;72.92
60049;BME280;66154;45.544;6.756;2023-12-29T20:39:04;87283.50;;;4.85;73.10
60049;BME280;66154;45.544;6.756;2023-12-29T20:44:04;87288.72;;;4.85;72.83
60049;BME280;66154;45.544;6.756;2023-12-29T20:49:05;87283.91;;;4.84;72.74
60049;BME280;66154;45.544;6.756;2023-12-29T20:54:06;87296.53;;;4.85;72.93
60049;BME280;66154;45.544;6.756;2023-12-29T20:59:06;87296.53;;;4.85;73.15
60049;BME280;66154;45.544;6.756;2023-12-29T21:04:07;87286.88;;;4.86;72.84
60049;BME280;66154;45.544;6.756;2023-12-29T21:09:11;87290.56;;;4.88;73.16
60049;BME280;66154;45.544;6.756;2023-12-29T21:14:12;87296.53;;;4.89;73.35
60049;BME280;66154;45.544;6.756;2023-12-29T21:19:13;87295.41;;;4.90;73.27
60049;BME280;66154;45.544;6.756;2023-12-29T21:24:14;87297.63;;;4.91;73.28
60049;BME280;66154;45.544;6.756;2023-12-29T21:29:14;87296.13;;;4.90;73.43
60049;BME280;66154;45.544;6.756;2023-12-29T21:34:15;87297.28;;;4.89;73.33
60049;BME280;66154;45.544;6.756;2023-12-29T21:39:18;87293.91;;;4.89;73.40
60049;BME280;66154;45.544;6.756;2023-12-29T21:44:18;87292.06;;;4.89;72.54
60049;BME280;66154;45.544;6.756;2023-12-29T21:49:19;87300.25;;;4.91;73.17
60049;BME280;66154;45.544;6.756;2023-12-29T21:54:19;87295.03;;;4.91;73.26
60049;BME280;66154;45.544;6.756;2023-12-29T21:59:20;87303.22;;;4.93;73.42
60049;BME280;66154;45.544;6.756;2023-12-29T22:04:21;87292.00;;;4.96;72.14
60049;BME280;66154;45.544;6.756;2023-12-29T22:09:21;87300.97;;;4.95;75.82
60049;BME280;66154;45.544;6.756;2023-12-29T22:14:22;87302.84;;;4.84;73.94
60049;BME280;66154;45.544;6.756;2023-12-29T22:19:23;87316.28;;;4.76;73.94
60049;BME280;66154;45.544;6.756;2023-12-29T22:24:24;87322.59;;;4.75;74.17
60049;BME280;66154;45.544;6.756;2023-12-29T22:29:25;87326.72;;;4.72;73.48
60049;BME280;66154;45.544;6.756;2023-12-29T22:34:25;87327.84;;;4.68;73.25
60049;BME280;66154;45.544;6.756;2023-12-29T22:39:26;87322.28;;;4.62;73.90
60049;BME280;66154;45.544;6.756;2023-12-29T22:44:26;87310.00;;;4.59;74.07
60049;BME280;66154;45.544;6.756;2023-12-29T22:49:27;87307.41;;;4.59;73.33
60049;BME280;66154;45.544;6.756;2023-12-29T22:54:28;87308.53;;;4.58;73.96
60049;BME280;66154;45.544;6.756;2023-12-29T22:59:28;87317.84;;;4.52;73.85
60049;BME280;66154;45.544;6.756;2023-12-29T23:04:32;87321.94;;;4.49;74.32
60049;BME280;66154;45.544;6.756;2023-12-29T23:09:33;87321.56;;;4.47;74.09
60049;BME280;66154;45.544;6.756;2023-12-29T23:14:38;87318.25;;;4.47;73.56
60049;BME280;66154;45.544;6.756;2023-12-29T23:19:39;87306.72;;;4.44;72.74
60049;BME280;66154;45.544;6.756;2023-12-29T23:24:42;87299.28;;;4.36;73.09
60049;BME280;66154;45.544;6.756;2023-12-29T23:29:42;87296.72;;;4.29;74.02
60049;BME280;66154;45.544;6.756;2023-12-29T23:34:43;87293.00;;;4.23;73.19
60049;BME280;66154;45.544;6.756;2023-12-29T23:39:44;87289.66;;;4.19;72.80
60049;BME280;66154;45.544;6.756;2023-12-29T23:44:46;87281.88;;;4.12;74.16
60049;BME280;66154;45.544;6.756;2023-12-29T23:49:46;87274.81;;;4.05;74.18
60049;BME280;66154;45.544;6.756;2023-12-29T23:54:48;87274.84;;;3.98;73.49
60049;BME280;66154;45.544;6.756;2023-12-29T23:59:49;87272.97;;;3.92;74.20
